Time;durP1;ratioP1;P1;durP2;ratioP2;P2;SDS_P1;SDS_P2;PMS_P1;PMS_P2;Temp;Humidity;BMP_temperature;BMP_pressure;BME280_temperature;BME280_humidity;BME280_pressure;Samples;Min_cycle;Max_cycle;Signal;HPM_P1;HPM_P2
2022/11/19 00:00:49;;;;;;;6.70;4.87;;;;;;;0.32;90.71;99206.39;1457738;88;21565;-79
2022/11/19 00:03:18;;;;;;;7.17;5.33;;;;;;;0.28;87.97;99211.44;1434079;91;21541;-80
2022/11/19 00:05:48;;;;;;;8.67;5.53;;;;;;;0.27;87.63;99219.72;1438622;90;22580;-79
2022/11/19 00:08:18;;;;;;;9.47;5.57;;;;;;;0.29;87.63;99219.59;1432577;90;21504;-79
2022/11/19 00:10:46;;;;;;;7.25;4.25;;;;;;;0.27;87.94;99224.92;1405040;91;21962;-79
2022/11/19 00:13:14;;;;;;;6.93;4.47;;;;;;;0.17;84.90;99220.02;1428753;91;21398;-80
2022/11/19 00:15:40;;;;;;;9.40;5.90;;;;;;;0.23;86.70;99226.07;1444925;90;21467;-79
2022/11/19 00:18:07;;;;;;;7.23;4.97;;;;;;;0.28;87.09;99234.38;1433075;90;21327;-80
2022/11/19 00:20:34;;;;;;;8.27;4.47;;;;;;;0.27;86.38;99239.72;1443319;91;21561;-79
2022/11/19 00:23:01;;;;;;;8.13;5.40;;;;;;;0.20;85.52;99249.27;1425122;91;22558;-79
2022/11/19 00:25:29;;;;;;;8.23;5.30;;;;;;;0.29;87.87;99255.59;1432388;90;21777;-79
2022/11/19 00:27:56;;;;;;;7.60;5.60;;;;;;;0.28;86.17;99255.20;1445695;90;21481;-78
2022/11/19 00:30:23;;;;;;;9.70;6.27;;;;;;;0.31;86.62;99258.06;1432923;90;21726;-79
2022/11/19 00:32:49;;;;;;;9.43;6.03;;;;;;;0.34;86.67;99265.17;1433669;91;21543;-77
2022/11/19 00:35:15;;;;;;;8.67;5.33;;;;;;;0.33;85.74;99273.11;1427378;91;22655;-78
2022/11/19 00:37:41;;;;;;;6.73;4.57;;;;;;;0.29;85.15;99281.61;1431166;91;21361;-78
2022/11/19 00:40:10;;;;;;;6.77;5.07;;;;;;;0.27;83.92;99291.29;1419407;91;21496;-77
2022/11/19 00:42:37;;;;;;;9.60;6.13;;;;;;;0.30;84.85;99294.97;1421237;91;23719;-78
2022/11/19 00:45:06;;;;;;;7.40;4.97;;;;;;;0.29;84.05;99301.58;1417426;91;21618;-78
2022/11/19 00:47:32;;;;;;;9.53;6.47;;;;;;;0.21;82.49;99302.97;1418674;91;21445;-78
2022/11/19 00:49:58;;;;;;;8.77;5.10;;;;;;;0.30;84.61;99313.66;1451888;89;21518;-79
2022/11/19 00:52:24;;;;;;;8.97;5.27;;;;;;;0.24;82.96;99312.81;1450276;89;21620;-78
2022/11/19 00:54:50;;;;;;;10.20;5.53;;;;;;;0.25;83.25;99309.25;1445861;89;21614;-80
2022/11/19 00:57:16;;;;;;;8.97;6.03;;;;;;;0.19;82.27;99311.34;1449296;89;22311;-79
2022/11/19 00:59:42;;;;;;;10.57;5.63;;;;;;;0.18;81.84;99312.30;1454957;89;21411;-78
2022/11/19 01:02:08;;;;;;;9.20;4.27;;;;;;;0.17;82.23;99326.70;1457847;89;21607;-79
2022/11/19 01:04:34;;;;;;;9.40;4.73;;;;;;;0.12;80.36;99328.82;1449966;89;21323;-79
2022/11/19 01:07:00;;;;;;;9.20;5.17;;;;;;;0.12;80.36;99328.82;1423215;91;21326;-80
2022/11/19 01:09:28;;;;;;;8.40;4.63;;;;;;;0.09;80.02;99334.24;1427883;91;21543;-78
2022/11/19 01:11:54;;;;;;;11.37;6.73;;;;;;;0.10;79.55;99329.39;1407936;93;22637;-79
2022/11/19 01:14:20;;;;;;;10.20;5.73;;;;;;;0.15;80.96;99327.30;1424918;92;21623;-80
2022/11/19 01:16:46;;;;;;;9.47;5.53;;;;;;;0.13;80.20;99330.47;1422708;92;21565;-80
2022/11/19 01:19:15;;;;;;;10.90;6.50;;;;;;;0.15;81.10;99345.04;1423783;91;21726;-79
2022/11/19 01:21:41;;;;;;;12.40;6.63;;;;;;;0.15;81.10;99345.04;1420916;92;21531;-78
2022/11/19 01:24:07;;;;;;;9.13;5.53;;;;;;;0.15;80.88;99348.13;1422064;92;22759;-79
2022/11/19 01:26:33;;;;;;;9.17;5.57;;;;;;;0.14;80.97;99338.63;1418231;92;21638;-79
2022/11/19 01:28:59;;;;;;;11.03;5.97;;;;;;;0.13;80.64;99349.98;1420496;91;22519;-78
2022/11/19 01:31:28;;;;;;;7.97;4.90;;;;;;;0.14;80.48;99357.67;1423573;91;21676;-78
2022/11/19 01:33:55;;;;;;;8.20;5.80;;;;;;;0.15;80.62;99359.83;1417191;91;21693;-79
2022/11/19 01:36:25;;;;;;;11.40;5.73;;;;;;;0.11;79.25;99366.99;1427078;90;21659;-80
2022/11/19 01:38:53;;;;;;;8.90;5.47;;;;;;;0.10;79.12;99378.83;1450885;90;21591;-79
2022/11/19 01:41:31;;;;;;;8.53;5.33;;;;;;;0.13;79.65;99376.01;1446375;90;21717;-77
2022/11/19 01:44:02;;;;;;;8.33;4.80;;;;;;;0.18;80.20;99373.92;1442622;90;22630;-77
2022/11/19 01:46:35;;;;;;;8.85;5.30;;;;;;;0.08;77.87;99384.59;1439935;90;21769;-77
2022/11/19 01:49:18;;;;;;;9.80;4.97;;;;;;;0.03;77.06;99389.28;1443319;90;21538;-77
2022/11/19 01:51:58;;;;;;;9.40;5.30;;;;;;;0.10;78.99;99385.33;1417671;90;22503;-77
2022/11/19 01:54:44;;;;;;;9.80;5.37;;;;;;;0.08;79.05;99379.39;1420424;92;21891;-77
2022/11/19 01:57:15;;;;;;;12.13;7.07;;;;;;;0.03;76.33;99389.28;1431744;91;22782;-77
2022/11/19 01:59:43;;;;;;;8.15;5.28;;;;;;;0.02;76.44;99392.83;1435040;91;21658;-77
2022/11/19 02:02:09;;;;;;;8.33;4.90;;;;;;;0.07;77.00;99405.06;1423154;91;21370;-77
2022/11/19 02:04:36;;;;;;;7.57;5.00;;;;;;;0.09;78.08;99414.90;1401913;91;21709;-76
2022/11/19 02:07:03;;;;;;;9.57;5.37;;;;;;;-0.05;75.07;99428.38;1427867;91;22136;-77
2022/11/19 02:09:29;;;;;;;8.73;6.60;;;;;;;-0.02;75.71;99439.87;1423809;91;21564;-77
2022/11/19 02:12:37;;;;;;;7.83;5.80;;;;;;;0.01;75.70;99444.51;1412001;91;21648;-76
2022/11/19 02:15:26;;;;;;;9.47;6.37;;;;;;;0.01;75.62;99449.70;1426077;91;22892;-77
2022/11/19 02:18:31;;;;;;;7.80;5.23;;;;;;;-0.06;74.70;99455.33;1422858;92;21646;-76
2022/11/19 02:21:38;;;;;;;14.70;6.97;;;;;;;-0.03;75.04;99465.53;1414717;90;21950;-77
2022/11/19 02:24:31;;;;;;;8.87;5.37;;;;;;;0.00;76.23;99468.39;1405341;93;22742;-77
2022/11/19 02:27:27;;;;;;;8.20;3.83;;;;;;;-0.06;73.85;99472.23;1380590;91;21821;-76
2022/11/19 02:30:04;;;;;;;7.43;3.93;;;;;;;-0.09;73.20;99475.02;1423809;91;21791;-77
2022/11/19 02:32:39;;;;;;;8.30;4.73;;;;;;;-0.12;72.33;99489.53;1427245;91;21714;-76
2022/11/19 02:35:17;;;;;;;9.57;4.60;;;;;;;-0.11;73.10;99499.49;1428177;91;21678;-77
2022/11/19 02:38:05;;;;;;;8.03;4.57;;;;;;;-0.05;73.31;99501.20;1426386;91;21846;-76
2022/11/19 02:40:48;;;;;;;5.10;3.27;;;;;;;-0.02;74.32;99503.60;1421596;91;21852;-77
2022/11/19 02:43:37;;;;;;;8.13;4.67;;;;;;;-0.03;73.02;99501.09;1424601;91;22329;-77
2022/11/19 02:46:13;;;;;;;7.67;5.07;;;;;;;-0.02;72.33;99507.50;1423709;91;21645;-77
2022/11/19 02:48:44;;;;;;;7.20;4.17;;;;;;;-0.02;73.00;99500.17;1419690;91;21579;-76
2022/11/19 02:51:12;;;;;;;8.28;5.20;;;;;;;-0.07;73.40;99512.65;1408958;91;21595;-77
2022/11/19 02:53:39;;;;;;;6.97;4.17;;;;;;;-0.04;73.04;99502.86;1449353;89;21361;-78
2022/11/19 02:56:16;;;;;;;9.37;4.70;;;;;;;-0.04;73.47;99508.06;1456121;89;21510;-79
2022/11/19 03:04:28;;;;;;;8.60;5.90;;;;;;;-0.10;71.56;99531.89;1466815;88;21645;-79
2022/11/19 03:07:08;;;;;;;11.70;6.55;;;;;;;-0.11;71.47;99541.11;1447062;89;21835;-78
2022/11/19 03:09:40;;;;;;;8.73;5.10;;;;;;;-0.08;72.78;99546.94;1460511;88;21472;-78
2022/11/19 03:12:17;;;;;;;9.50;6.17;;;;;;;-0.04;73.22;99555.36;1451877;89;21971;-77
2022/11/19 03:18:05;;;;;;;9.67;5.77;;;;;;;-0.05;73.05;99580.55;1449613;90;21716;-77
2022/11/19 03:20:40;;;;;;;9.47;6.13;;;;;;;-0.11;71.82;99588.76;1444982;90;21703;-77
2022/11/19 03:23:11;;;;;;;12.40;7.23;;;;;;;-0.09;71.92;99593.84;1444008;90;22468;-78
2022/11/19 03:25:53;;;;;;;10.87;6.70;;;;;;;-0.14;70.62;99605.87;1448410;90;21830;-76
2022/11/19 03:28:24;;;;;;;10.65;6.40;;;;;;;-0.14;71.15;99605.87;1440346;90;21614;-77
2022/11/19 03:30:51;;;;;;;12.98;7.70;;;;;;;-0.14;71.71;99611.06;1457944;90;21360;-77
2022/11/19 03:33:38;;;;;;;11.93;7.00;;;;;;;-0.20;70.97;99618.41;1447217;90;21353;-77
2022/11/19 03:36:12;;;;;;;9.70;6.03;;;;;;;-0.17;71.10;99618.21;1451135;90;21649;-78
2022/11/19 03:38:46;;;;;;;11.90;7.57;;;;;;;-0.21;70.73;99634.48;1457963;89;21781;-79
2022/11/19 03:41:16;;;;;;;9.43;5.87;;;;;;;-0.11;73.06;99636.05;1450016;89;21608;-77
2022/11/19 03:43:48;;;;;;;11.43;7.22;;;;;;;-0.10;72.49;99648.94;1452526;89;21582;-78
2022/11/19 03:46:16;;;;;;;;;;;;;;;-0.11;72.41;99656.39;1452308;89;21633;-79
2022/11/19 03:48:46;;;;;;;12.40;6.87;;;;;;;-0.15;72.17;99656.20;1456055;89;20248;-77
2022/11/19 03:51:21;;;;;;;12.65;7.15;;;;;;;-0.29;69.89;99656.24;1451090;89;21564;-77
2022/11/19 03:53:48;;;;;;;12.73;8.10;;;;;;;-0.20;72.00;99667.83;1422552;91;21414;-79
2022/11/19 03:56:19;;;;;;;11.93;8.20;;;;;;;-0.24;72.43;99671.92;1433646;90;22436;-79
2022/11/19 03:58:47;;;;;;;13.25;8.15;;;;;;;-0.35;70.93;99676.97;1436846;91;21652;-79
2022/11/19 04:01:14;;;;;;;15.33;9.73;;;;;;;-0.33;71.81;99691.19;1409895;93;22460;-78
2022/11/19 04:04:34;;;;;;;18.67;11.53;;;;;;;-0.30;72.41;99693.59;1445036;89;21419;-78
2022/11/19 04:06:09;;;;;;;17.73;10.37;;;;;;;-0.27;73.66;99697.30;1449779;88;21644;-78
2022/11/19 04:08:35;;;;;;;15.53;9.83;;;;;;;-0.24;73.64;99695.80;1453588;89;21618;-78
2022/11/19 04:11:01;;;;;;;16.33;9.73;;;;;;;-0.29;73.17;99694.81;1458730;89;21531;-79
2022/11/19 04:13:27;;;;;;;20.83;12.30;;;;;;;-0.24;73.74;99694.50;1445474;90;22321;-79
2022/11/19 04:15:53;;;;;;;19.03;10.13;;;;;;;-0.32;73.21;99711.05;1448500;89;21369;-79
2022/11/19 04:18:19;;;;;;;17.27;10.70;;;;;;;-0.31;73.54;99701.86;1450607;89;21540;-77
2022/11/19 04:20:45;;;;;;;16.70;10.87;;;;;;;-0.39;72.95;99700.67;1463322;89;22342;-78
2022/11/19 04:23:11;;;;;;;20.57;12.17;;;;;;;-0.47;72.47;99712.37;1435418;90;21646;-77
2022/11/19 04:25:39;;;;;;;16.80;10.33;;;;;;;-0.43;74.19;99711.73;1450806;89;21734;-78
2022/11/19 04:28:05;;;;;;;20.03;10.63;;;;;;;-0.46;73.79;99706.73;1462684;89;21492;-78
2022/11/19 04:30:31;;;;;;;20.23;11.27;;;;;;;-0.50;73.39;99706.06;1454940;89;21530;-78
2022/11/19 04:32:57;;;;;;;14.20;9.40;;;;;;;-0.47;74.09;99700.67;1451315;89;22501;-77
2022/11/19 04:35:23;;;;;;;19.53;11.43;;;;;;;-0.52;73.43;99707.94;1458294;90;21449;-76
2022/11/19 04:37:49;;;;;;;20.67;12.33;;;;;;;-0.52;74.44;99706.64;1450704;89;21449;-77
2022/11/19 04:40:16;;;;;;;16.87;9.83;;;;;;;-0.54;74.02;99707.66;1457375;90;21598;-77
2022/11/19 04:42:42;;;;;;;17.67;11.50;;;;;;;-0.57;74.04;99699.59;1456732;90;21548;-77
2022/11/19 04:45:10;;;;;;;17.23;11.43;;;;;;;-0.60;73.72;99693.75;1454895;89;22420;-76
2022/11/19 04:47:36;;;;;;;19.33;11.30;;;;;;;-0.64;73.28;99696.15;1448384;89;21648;-77
2022/11/19 04:50:03;;;;;;;20.47;13.73;;;;;;;-0.64;72.01;99703.95;1461368;89;22627;-77
2022/11/19 04:52:31;;;;;;;24.37;11.87;;;;;;;-0.61;73.32;99714.15;1455308;89;21817;-77
2022/11/19 04:54:57;;;;;;;19.50;11.20;;;;;;;-0.61;73.05;99721.48;1454756;89;22439;-76
2022/11/19 04:57:23;;;;;;;21.40;11.53;;;;;;;-0.66;71.84;99722.25;1452120;90;21790;-77
2022/11/19 04:59:49;;;;;;;17.80;10.70;;;;;;;-0.71;71.10;99725.58;1450798;89;21508;-77
2022/11/19 05:02:15;;;;;;;20.50;10.97;;;;;;;-0.71;71.10;99725.58;1448287;88;22119;-77
2022/11/19 05:04:41;;;;;;;18.97;11.87;;;;;;;-0.69;70.99;99728.47;1450749;90;21633;-77
2022/11/19 05:07:07;;;;;;;17.77;10.80;;;;;;;-0.78;71.65;99722.97;1446996;90;23036;-76
2022/11/19 05:09:33;;;;;;;18.60;12.43;;;;;;;-0.74;71.56;99737.47;1452243;89;21993;-77
2022/11/19 05:11:59;;;;;;;20.20;11.73;;;;;;;-0.67;72.65;99754.34;1456825;89;21666;-77
2022/11/19 05:14:25;;;;;;;21.53;13.13;;;;;;;-0.74;70.96;99763.45;1451500;89;21659;-76
2022/11/19 05:16:51;;;;;;;20.43;12.37;;;;;;;-0.69;72.30;99778.31;1449299;89;21331;-77
2022/11/19 05:19:17;;;;;;;22.97;14.00;;;;;;;-0.69;72.30;99778.31;1448996;89;22158;-77
2022/11/19 05:21:43;;;;;;;22.17;14.10;;;;;;;-0.64;72.24;99781.45;1459844;89;22247;-78
2022/11/19 05:24:09;;;;;;;21.43;13.43;;;;;;;-0.59;72.26;99795.01;1453685;89;22189;-77
2022/11/19 05:26:36;;;;;;;24.53;12.73;;;;;;;-0.66;71.65;99811.91;1450634;89;22664;-78
2022/11/19 05:29:02;;;;;;;23.23;13.47;;;;;;;-0.62;72.16;99821.66;1448122;89;21534;-78
2022/11/19 05:31:29;;;;;;;21.60;12.37;;;;;;;-0.58;72.77;99829.16;1464665;89;22395;-77
2022/11/19 05:33:55;;;;;;;20.67;13.27;;;;;;;-0.66;70.97;99835.73;1444017;89;21519;-77
2022/11/19 05:36:21;;;;;;;24.00;13.73;;;;;;;-0.58;72.37;99838.26;1453545;89;21482;-77
2022/11/19 05:38:47;;;;;;;24.33;14.37;;;;;;;-0.57;72.94;99839.19;1451408;89;21646;-77
2022/11/19 05:41:13;;;;;;;22.67;13.53;;;;;;;-0.59;72.29;99839.19;1454567;89;21384;-77
2022/11/19 05:43:39;;;;;;;19.50;12.03;;;;;;;-0.60;71.24;99853.59;1447459;90;21450;-77
2022/11/19 05:46:05;;;;;;;25.10;14.07;;;;;;;-0.64;71.47;99876.78;1449634;89;21317;-77
2022/11/19 05:48:31;;;;;;;21.37;13.40;;;;;;;-0.64;71.47;99876.78;1448542;89;22894;-78
2022/11/19 05:50:57;;;;;;;22.37;13.13;;;;;;;-0.59;72.17;99882.08;1467075;89;21624;-77
2022/11/19 05:53:23;;;;;;;21.50;11.73;;;;;;;-0.67;71.00;99883.45;1453497;89;21273;-78
2022/11/19 05:55:49;;;;;;;23.77;14.17;;;;;;;-0.61;71.80;99881.80;1446022;90;21332;-78
2022/11/19 05:58:15;;;;;;;21.10;13.33;;;;;;;-0.60;71.11;99889.52;1453436;89;21833;-78
2022/11/19 06:00:41;;;;;;;21.23;12.80;;;;;;;-0.54;72.24;99897.42;1451793;89;21296;-78
2022/11/19 06:03:08;;;;;;;21.37;13.77;;;;;;;-0.63;71.19;99903.13;1455646;89;21369;-76
2022/11/19 06:05:35;;;;;;;21.60;13.90;;;;;;;-0.55;72.42;99904.36;1462339;89;21353;-79
2022/11/19 06:08:01;;;;;;;22.87;13.83;;;;;;;-0.51;73.29;99908.47;1457237;89;21589;-79
2022/11/19 06:10:27;;;;;;;20.70;13.30;;;;;;;-0.50;72.79;99911.91;1457658;89;22409;-81
2022/11/19 06:12:53;;;;;;;23.43;14.40;;;;;;;-0.47;72.34;99913.02;1446177;90;21446;-78
2022/11/19 06:15:19;;;;;;;21.83;13.87;;;;;;;-0.49;72.39;99924.83;1463057;89;21324;-79
2022/11/19 06:17:45;;;;;;;20.37;13.33;;;;;;;-0.47;72.49;99926.02;1463331;89;21638;-79
2022/11/19 06:20:11;;;;;;;20.20;13.20;;;;;;;-0.39;73.56;99933.37;1448753;90;21740;-81
2022/11/19 06:22:38;;;;;;;26.47;15.47;;;;;;;-0.40;72.23;99935.15;1451188;90;21353;-80
2022/11/19 06:25:06;;;;;;;18.73;12.63;;;;;;;-0.41;72.88;99939.13;1462412;89;21697;-80
2022/11/19 06:27:33;;;;;;;20.17;12.27;;;;;;;-0.37;73.18;99944.53;1450718;89;21602;-79
2022/11/19 06:30:00;;;;;;;19.47;12.77;;;;;;;-0.38;71.29;99950.64;1454453;89;22139;-77
2022/11/19 06:32:26;;;;;;;20.77;12.70;;;;;;;-0.40;71.73;99957.25;1453726;89;21583;-79
2022/11/19 06:34:52;;;;;;;20.07;13.23;;;;;;;-0.33;72.29;99958.55;1452717;89;21595;-78
2022/11/19 06:37:18;;;;;;;20.97;12.43;;;;;;;-0.36;71.42;99964.41;1452963;89;21530;-77
2022/11/19 06:39:44;;;;;;;23.03;13.13;;;;;;;-0.37;71.33;99969.23;1453592;89;22277;-78
2022/11/19 06:44:57;;;;;;;22.60;14.60;;;;;;;-0.35;71.75;99969.97;1409908;92;22668;-80
2022/11/19 06:47:23;;;;;;;22.20;12.27;;;;;;;-0.39;71.12;99978.88;1403796;93;21787;-80
2022/11/19 06:49:49;;;;;;;21.43;12.80;;;;;;;-0.39;71.66;99984.08;1406214;92;21634;-80
2022/11/19 06:52:15;;;;;;;23.43;13.87;;;;;;;-0.35;72.83;99988.17;1412919;92;21625;-80
2022/11/19 06:54:41;;;;;;;20.30;13.10;;;;;;;-0.31;72.73;99980.58;1405261;92;21868;-80
2022/11/19 06:57:07;;;;;;;22.63;13.13;;;;;;;-0.43;70.21;99990.37;1418111;92;21730;-79
2022/11/19 06:59:33;;;;;;;22.23;13.70;;;;;;;-0.32;71.25;99994.48;1412593;92;22433;-80
2022/11/19 07:01:59;;;;;;;21.37;13.10;;;;;;;-0.25;72.71;99995.36;1404246;92;21659;-78
2022/11/19 07:04:26;;;;;;;18.93;11.33;;;;;;;-0.26;71.46;100000.19;1408280;93;21718;-78
2022/11/19 07:06:52;;;;;;;25.00;13.57;;;;;;;-0.32;70.37;100006.19;1410520;93;21569;-79
2022/11/19 07:09:18;;;;;;;21.20;12.73;;;;;;;-0.37;70.45;100000.44;1408992;93;22222;-79
2022/11/19 07:11:44;;;;;;;19.30;11.80;;;;;;;-0.39;70.71;100010.08;1407351;93;22504;-76
2022/11/19 07:14:10;;;;;;;21.63;13.10;;;;;;;-0.40;71.21;100011.85;1418144;93;22121;-77
2022/11/19 07:16:37;;;;;;;20.67;12.23;;;;;;;-0.36;71.22;100013.81;1441646;90;21412;-77
2022/11/19 07:19:06;;;;;;;17.53;11.57;;;;;;;-0.40;71.46;100012.29;1451739;89;21494;-76
2022/11/19 07:21:33;;;;;;;19.70;13.33;;;;;;;-0.45;71.30;100028.17;1453741;89;22671;-78
2022/11/19 07:24:02;;;;;;;19.90;13.10;;;;;;;-0.40;72.96;100028.75;1459424;90;21803;-77
2022/11/19 07:26:32;;;;;;;24.27;14.57;;;;;;;-0.46;71.43;100022.14;1458575;89;21392;-77
2022/11/19 07:29:01;;;;;;;20.33;13.23;;;;;;;-0.47;71.89;100038.64;1447486;89;21461;-77
2022/11/19 07:31:27;;;;;;;17.57;10.27;;;;;;;-0.50;71.92;100047.09;1448492;89;21778;-77
2022/11/19 07:33:54;;;;;;;16.93;11.00;;;;;;;-0.53;71.77;100049.39;1436053;89;22465;-76
2022/11/19 07:36:20;;;;;;;16.70;10.00;;;;;;;-0.48;72.27;100056.95;1449434;89;21687;-77
2022/11/19 07:38:46;;;;;;;20.47;12.53;;;;;;;-0.53;72.17;100057.19;1440155;89;21488;-78
2022/11/19 07:43:57;;;;;;;24.43;14.13;;;;;;;-0.47;72.56;100066.41;1451579;90;22515;-84
2022/11/19 07:46:24;;;;;;;18.80;11.10;;;;;;;-0.38;73.42;100061.98;1449918;89;21714;-86
2022/11/19 07:48:54;;;;;;;22.50;13.23;;;;;;;-0.40;72.47;100048.69;1457222;89;22046;-84
2022/11/19 07:51:21;;;;;;;18.73;10.70;;;;;;;-0.37;71.99;100039.45;1456157;89;21612;-85
2022/11/19 07:53:48;;;;;;;19.67;12.90;;;;;;;-0.35;71.76;100028.47;1469174;89;21287;-85
2022/11/19 07:56:15;;;;;;;21.20;12.47;;;;;;;-0.29;72.00;100033.31;1451344;89;21758;-85
2022/11/19 07:58:41;;;;;;;25.43;13.27;;;;;;;-0.27;71.78;100036.67;1449157;88;21354;-83
2022/11/19 08:01:16;;;;;;;18.23;11.70;;;;;;;-0.23;72.02;100034.30;1458850;88;21608;-83
2022/11/19 08:03:44;;;;;;;21.57;13.97;;;;;;;-0.24;71.70;100034.73;1449396;89;21733;-83
2022/11/19 08:06:10;;;;;;;26.30;14.43;;;;;;;-0.19;71.91;100040.98;1451351;88;21798;-85
2022/11/19 08:08:36;;;;;;;26.93;15.70;;;;;;;-0.06;72.87;100053.66;1450320;89;22484;-84
2022/11/19 08:11:06;;;;;;;45.33;22.07;;;;;;;-0.04;72.08;100056.98;1458518;89;21427;-87
2022/11/19 08:13:33;;;;;;;44.88;26.37;;;;;;;0.04;72.31;100055.72;1454492;89;21427;-84
2022/11/19 08:16:04;;;;;;;35.70;20.47;;;;;;;0.10;72.24;100056.66;1452497;89;21413;-82
2022/11/19 08:18:31;;;;;;;37.33;19.17;;;;;;;0.10;71.38;100055.36;1436456;90;21623;-86
2022/11/19 08:21:08;;;;;;;36.13;20.47;;;;;;;0.01;69.80;100058.50;1451116;90;21486;-86
2022/11/19 08:23:36;;;;;;;26.33;14.60;;;;;;;0.03;70.94;100057.93;1451686;89;21667;-83
2022/11/19 08:26:06;;;;;;;31.40;17.30;;;;;;;0.03;71.20;100070.94;1461011;89;21527;-85
2022/11/19 08:28:32;;;;;;;31.83;17.70;;;;;;;0.13;71.72;100079.91;1455056;89;22455;-86
2022/11/19 08:31:07;;;;;;;33.50;16.37;;;;;;;0.23;72.38;100084.92;1449363;90;21650;-85
2022/11/19 08:33:34;;;;;;;44.90;18.10;;;;;;;0.24;71.65;100084.02;1451047;89;21610;-85
2022/11/19 08:36:01;;;;;;;24.73;14.90;;;;;;;0.15;70.15;100091.06;1459126;89;22399;-85
2022/11/19 08:38:27;;;;;;;23.63;13.97;;;;;;;0.13;70.14;100089.01;1450216;90;21548;-83
2022/11/19 08:42:58;;;;;;;24.47;15.13;;;;;;;0.18;71.00;100094.32;1444671;89;21628;-85
2022/11/19 08:43:21;;;;;;;24.37;12.87;;;;;;;0.23;71.19;100104.45;1451630;89;21391;-85
2022/11/19 08:45:56;;;;;;;19.87;11.83;;;;;;;0.26;70.75;100106.89;1442567;89;21495;-85
2022/11/19 08:48:19;;;;;;;29.03;16.13;;;;;;;0.24;68.85;100106.61;1458774;89;22456;-86
2022/11/19 08:50:45;;;;;;;26.20;15.70;;;;;;;0.29;70.07;100121.03;1454808;89;21723;-86
2022/11/19 08:53:11;;;;;;;27.40;15.93;;;;;;;0.22;68.82;100119.23;1451772;89;22122;-84
2022/11/19 08:55:37;;;;;;;46.37;25.53;;;;;;;0.24;70.07;100117.02;1446753;89;21626;-85
2022/11/19 08:58:06;;;;;;;30.70;17.00;;;;;;;0.25;70.10;100127.33;1454044;90;22292;-85
2022/11/19 09:00:36;;;;;;;56.93;28.30;;;;;;;0.25;69.61;100138.20;1449244;90;21339;-84
2022/11/19 09:03:03;;;;;;;24.20;14.23;;;;;;;0.26;69.23;100136.83;1455861;89;21642;-85
2022/11/19 09:05:29;;;;;;;26.30;14.97;;;;;;;0.19;67.42;100132.89;1450624;90;21595;-85
2022/11/19 09:07:55;;;;;;;23.80;15.63;;;;;;;0.20;68.16;100131.95;1445725;89;21584;-85
2022/11/19 09:10:21;;;;;;;25.17;16.77;;;;;;;0.29;69.04;100135.35;1450810;89;21472;-86
2022/11/19 09:12:48;;;;;;;24.27;14.80;;;;;;;0.37;69.29;100142.22;1451432;90;21525;-85
2022/11/19 09:15:14;;;;;;;24.30;14.67;;;;;;;0.38;66.57;100136.58;1451761;89;21661;-85
2022/11/19 09:17:40;;;;;;;23.83;15.10;;;;;;;0.41;67.51;100142.44;1449445;89;22383;-85
2022/11/19 09:20:08;;;;;;;25.10;16.13;;;;;;;0.44;68.39;100140.95;1456036;89;21708;-86
2022/11/19 09:22:34;;;;;;;26.67;13.67;;;;;;;0.50;67.41;100141.53;1452602;89;21688;-86
2022/11/19 09:25:00;;;;;;;27.77;15.63;;;;;;;0.51;67.20;100144.49;1453208;89;22794;-87
2022/11/19 09:27:26;;;;;;;21.17;13.83;;;;;;;0.51;66.76;100140.59;1456297;89;21541;-85
2022/11/19 09:29:52;;;;;;;25.87;14.17;;;;;;;0.33;65.38;100147.25;1455478;89;21771;-85
2022/11/19 09:32:18;;;;;;;22.53;14.00;;;;;;;0.33;65.70;100154.23;1458508;89;21295;-84
2022/11/19 09:34:44;;;;;;;18.23;11.63;;;;;;;0.38;66.80;100149.59;1452313;90;21622;-85
2022/11/19 09:37:10;;;;;;;20.53;13.20;;;;;;;0.30;65.55;100149.20;1447261;89;21622;-86
2022/11/19 09:39:37;;;;;;;27.00;15.33;;;;;;;0.33;66.00;100158.97;1454825;89;21675;-86
2022/11/19 09:42:42;;;;;;;20.07;13.13;;;;;;;0.39;67.03;100151.26;1449142;89;22593;-86
2022/11/19 09:45:19;;;;;;;24.27;14.33;;;;;;;0.49;67.30;100151.55;1443902;89;21747;-86
2022/11/19 09:48:06;;;;;;;25.90;15.93;;;;;;;0.64;68.23;100154.58;1458797;89;21622;-86
2022/11/19 09:50:38;;;;;;;22.10;14.03;;;;;;;0.76;68.32;100151.70;1434913;89;21840;-82
2022/11/19 09:53:18;;;;;;;22.27;14.13;;;;;;;0.74;66.72;100143.96;1448977;89;21833;-83
2022/11/19 09:55:48;;;;;;;25.33;14.43;;;;;;;0.78;65.05;100150.68;1466895;89;22305;-84
2022/11/19 09:58:39;;;;;;;22.30;14.67;;;;;;;0.68;65.04;100150.84;1455421;89;21610;-84
2022/11/19 10:01:05;;;;;;;;;;;;;;;0.68;65.04;100150.84;1445616;89;22826;-84
2022/11/19 10:03:32;;;;;;;25.33;14.50;;;;;;;0.70;67.93;100146.39;1453024;88;20392;-83
2022/11/19 10:06:08;;;;;;;24.03;13.83;;;;;;;0.81;66.57;100147.06;1444021;90;21480;-83
2022/11/19 10:09:23;;;;;;;22.70;14.13;;;;;;;0.73;63.57;100146.20;1462023;89;22509;-82
2022/11/19 10:12:16;;;;;;;22.23;12.80;;;;;;;0.78;65.01;100149.37;1393527;92;22606;-81
2022/11/19 10:15:10;;;;;;;23.73;13.03;;;;;;;0.69;65.39;100147.30;1402753;93;21682;-83
2022/11/19 10:17:47;;;;;;;22.67;12.93;;;;;;;0.63;64.22;100154.17;1412904;93;21719;-84
2022/11/19 10:20:31;;;;;;;31.13;15.87;;;;;;;0.55;64.41;100157.25;1445626;89;21959;-83
2022/11/19 10:23:15;;;;;;;22.90;12.53;;;;;;;0.55;64.85;100160.33;1439778;90;22818;-85
2022/11/19 10:25:46;;;;;;;24.70;13.90;;;;;;;0.42;63.89;100162.33;1445351;89;21727;-85
2022/11/19 10:28:20;;;;;;;24.55;13.53;;;;;;;0.57;65.36;100171.00;1458866;89;21599;-84
2022/11/19 10:30:54;;;;;;;25.97;14.60;;;;;;;0.60;65.04;100166.08;1459312;89;21390;-84
2022/11/19 10:33:52;;;;;;;27.93;15.63;;;;;;;0.69;65.38;100173.34;1450662;89;21649;-83
2022/11/19 10:36:27;;;;;;;32.40;19.00;;;;;;;0.74;65.78;100171.78;1453992;90;22583;-83
2022/11/19 10:39:07;;;;;;;42.83;26.67;;;;;;;0.76;65.11;100168.16;1448334;89;22361;-83
2022/11/19 10:41:45;;;;;;;32.48;16.20;;;;;;;0.71;64.94;100159.77;1456134;89;21678;-83
2022/11/19 10:44:36;;;;;;;23.13;12.67;;;;;;;0.65;65.05;100151.86;1451498;88;21360;-84
2022/11/19 10:47:04;;;;;;;26.83;16.40;;;;;;;0.57;63.35;100153.24;1451464;89;22475;-84
2022/11/19 10:49:36;;;;;;;29.73;17.37;;;;;;;0.56;63.93;100149.80;1449637;89;21752;-82
2022/11/19 10:52:02;;;;;;;23.23;13.80;;;;;;;0.67;65.58;100156.99;1447215;88;21673;-82
2022/11/19 10:54:30;;;;;;;34.90;15.50;;;;;;;0.62;64.04;100153.81;1452372;89;21781;-82
2022/11/19 10:56:57;;;;;;;20.60;12.00;;;;;;;0.60;64.65;100159.10;1453398;89;21812;-82
2022/11/19 10:59:26;;;;;;;22.90;12.70;;;;;;;0.66;64.67;100160.50;1463023;89;21736;-83
2022/11/19 11:02:01;;;;;;;27.53;14.77;;;;;;;0.70;64.41;100154.67;1454166;89;21769;-84
2022/11/19 11:04:29;;;;;;;26.03;15.27;;;;;;;0.79;64.43;100153.64;1458962;90;21709;-82
2022/11/19 11:07:02;;;;;;;25.70;14.10;;;;;;;0.87;65.29;100155.33;1461587;89;21636;-84
2022/11/19 11:09:39;;;;;;;22.30;14.73;;;;;;;0.78;63.97;100151.98;1460604;89;22095;-81
2022/11/19 11:15:23;;;;;;;23.23;14.17;;;;;;;0.88;64.85;100145.27;1443070;89;21942;-82
2022/11/19 11:18:09;;;;;;;28.07;17.40;;;;;;;0.88;64.85;100145.27;1452005;89;21840;-84
2022/11/19 11:20:39;;;;;;;28.03;14.77;;;;;;;0.95;64.87;100148.36;1464662;89;21678;-84
2022/11/19 11:23:13;;;;;;;28.40;15.07;;;;;;;1.13;65.48;100158.13;1431248;89;21696;-84
2022/11/19 11:25:42;;;;;;;23.47;14.30;;;;;;;1.13;65.48;100158.13;1451449;89;21923;-84
2022/11/19 11:28:22;;;;;;;25.23;14.83;;;;;;;1.17;64.96;100162.20;1450302;88;21771;-85
2022/11/19 11:30:58;;;;;;;25.27;14.87;;;;;;;1.17;64.66;100163.52;1458663;88;21965;-83
2022/11/19 11:33:41;;;;;;;23.77;14.07;;;;;;;1.19;65.21;100163.44;1455908;88;21919;-83
2022/11/19 11:36:15;;;;;;;21.20;13.67;;;;;;;1.13;63.55;100164.64;1442669;89;21794;-84
2022/11/19 11:38:49;;;;;;;26.00;16.33;;;;;;;1.22;65.33;100170.59;1462666;88;22202;-83
2022/11/19 11:41:19;;;;;;;33.50;19.07;;;;;;;1.32;66.41;100178.23;1453093;89;21860;-83
2022/11/19 11:44:00;;;;;;;30.00;18.77;;;;;;;1.32;66.41;100178.23;1452177;89;21754;-84
2022/11/19 11:46:18;;;;;;;27.00;15.27;;;;;;;1.52;66.36;100206.13;1457073;89;21662;-84
2022/11/19 11:48:48;;;;;;;194.70;96.60;;;;;;;1.52;66.36;100206.13;1446845;88;22736;-83
2022/11/19 11:51:30;;;;;;;39.83;24.63;;;;;;;1.52;64.33;100208.27;1462569;89;21877;-84
2022/11/19 11:54:18;;;;;;;43.43;24.63;;;;;;;1.46;61.77;100214.34;1447920;89;21910;-83
2022/11/19 11:56:46;;;;;;;33.23;20.77;;;;;;;1.48;64.46;100228.97;1449625;88;22125;-83